Fjordprinsessen — LJVE — position and weather

sailwx.info

Track history (hours):
 
Tides and Currents Weather Stations Pressure Air Temp Water Temp Dewpoint Dewpoint Depression Visibility Wind Speed Wind Dir Waves Ship Positions

Fjordprinsessen

Last reported at 2016-Sep-26 11:31 UTC. Time now 2016-Sep-26 12:18 UTC.
Position N 67°17' E 014°22'.

Length 30 m; draft 2.5 m.

Type: High speed craft. MMSI: 259604000.

Date/timePositionNaut miles runAvg speedWind from/ knotsBaromVisibWave heightAir tempDewpointWater temp
2016-Sep-26 11:31N 67°17' E 014°22'0 0.0
2016-Sep-26 08:31N 67°17' E 014°22'13 2.2
2016-Sep-26 02:29N 67°24' E 013°54'0 0.0
2016-Sep-26 01:29N 67°24' E 013°54'0 0.0
2016-Sep-25 21:29N 67°24' E 013°54'27 6.8
2016-Sep-25 17:33N 66°59' E 013°34'2811.6
2016-Sep-25 15:08N 66°34' E 012°59'1118.1
2016-Sep-25 14:33N 66°25' E 012°46'5 0.2
2016-Sep-24 18:31N 66°21' E 012°52'5413.6
2016-Sep-24 14:33N 67°07' E 014°03'12 6.1
2016-Sep-24 12:32N 67°17' E 014°22'0 0.0
2016-Sep-24 10:32N 67°17' E 014°22'0 0.0
2016-Sep-24 09:32N 67°17' E 014°22'0 0.0
2016-Sep-24 03:31N 67°17' E 014°22'0 0.0
2016-Sep-24 02:31N 67°17' E 014°22'0 0.0
2016-Sep-24 01:31N 67°17' E 014°22'0 0.0
2016-Sep-24 00:31N 67°17' E 014°22'0 0.0
2016-Sep-23 19:31N 67°17' E 014°22'0 0.0
2016-Sep-23 17:31N 67°17' E 014°22'0 0.0
2016-Sep-23 16:33N 67°17' E 014°22'1515.1
2016-Sep-23 15:33N 67°18' E 013°43'15 7.6
2016-Sep-23 13:33N 67°17' E 014°22'0 0.0
2016-Sep-23 09:33N 67°17' E 014°22'0 0.0
2016-Sep-23 06:32N 67°17' E 014°22'12 6.2
2016-Sep-23 04:33N 67°07' E 014°03'1212.3
2016-Sep-23 03:33N 67°17' E 014°22'0 0.0
2016-Sep-23 02:33N 67°17' E 014°22'0 0.0
2016-Sep-23 01:33N 67°17' E 014°22'0 0.0
2016-Sep-23 00:33N 67°17' E 014°22'0 0.0
2016-Sep-22 23:33N 67°17' E 014°22'0 0.0
2016-Sep-22 20:32N 67°17' E 014°22'15 1.9
2016-Sep-22 12:33N 67°19' E 013°44'13 1.7
2016-Sep-22 04:33N 67°07' E 014°03'1212.3
2016-Sep-22 03:33N 67°17' E 014°22'0 0.0
2016-Sep-22 00:31N 67°17' E 014°22'0 0.0
2016-Sep-21 23:31N 67°17' E 014°22'0 0.0
2016-Sep-21 22:31N 67°17' E 014°22'7 2.5
2016-Sep-21 19:33N 67°14' E 014°05'8 2.6
2016-Sep-21 16:33N 67°17' E 014°23'1 0.1
2016-Sep-21 09:33N 67°17' E 014°22'0 0.0
2016-Sep-21 08:33N 67°17' E 014°22'0 0.0
2016-Sep-21 05:33N 67°17' E 014°22'0 0.0
2016-Sep-21 03:33N 67°17' E 014°22'0 0.0
2016-Sep-21 02:31N 67°17' E 014°22'0 0.0
2016-Sep-20 17:31N 67°17' E 014°22'10 3.2
2016-Sep-20 14:33N 67°25' E 014°07'10 9.6
2016-Sep-20 13:33N 67°17' E 014°22'0 0.0
2016-Sep-20 10:33N 67°17' E 014°22'0 0.0
2016-Sep-20 08:33N 67°17' E 014°22'0 0.0
2016-Sep-20 07:33N 67°17' E 014°22'1413.2
2016-Sep-20 06:31N 67°21' E 013°48'14 3.5
2016-Sep-20 02:32N 67°17' E 014°22'0 0.0
2016-Sep-19 23:32N 67°17' E 014°22'0 0.0
2016-Sep-19 19:32N 67°17' E 014°22'0 0.0
2016-Sep-19 18:32N 67°17' E 014°22'0 0.0
2016-Sep-19 16:34N 67°17' E 014°22'10 4.8
2016-Sep-19 14:34N 67°25' E 014°08'10 9.5
2016-Sep-19 13:33N 67°17' E 014°22'0 0.0
2016-Sep-19 12:33N 67°17' E 014°22'0 0.0
2016-Sep-19 11:33N 67°17' E 014°22'0 0.0
2016-Sep-19 09:33N 67°17' E 014°22'3 1.7
2016-Sep-19 07:34N 67°20' E 014°18'1110.9
2016-Sep-19 06:33N 67°22' E 013°50'3 0.8
2016-Sep-19 03:03N 67°24' E 013°54'0 0.0
2016-Sep-19 02:33N 67°24' E 013°54'0 0.0
2016-Sep-19 00:33N 67°24' E 013°54'5 1.0
2016-Sep-18 19:33N 67°25' E 014°07'6212.2
2016-Sep-18 14:30N 66°29' E 012°58'10 0.5
2016-Sep-17 18:28N 66°20' E 012°53'6713.6
2016-Sep-17 13:31N 67°17' E 014°22'0 0.0
2016-Sep-17 12:31N 67°17' E 014°22'0 0.0
2016-Sep-17 10:31N 67°17' E 014°22'0 0.1
2016-Sep-17 09:34N 67°17' E 014°22'1311.3
2016-Sep-17 08:22N 67°23' E 013°51'911.5
2016-Sep-17 07:34N 67°17' E 014°09'3 1.7
2016-Sep-17 05:34N 67°16' E 014°17'2 2.0
2016-Sep-17 04:31N 67°17' E 014°22'0 0.0
2016-Sep-17 00:31N 67°17' E 014°22'0 0.0
2016-Sep-16 17:31N 67°17' E 014°22'5 2.5
2016-Sep-16 15:33N 67°21' E 014°15'9 3.0
2016-Sep-16 12:33N 67°20' E 013°52'  
Track history (hours):
 
Tides and Currents Weather Stations Pressure Air Temp Water Temp Dewpoint Dewpoint Depression Visibility Wind Speed Wind Dir Waves Ship Positions

Fjordprinsessen

Last reported at 2016-Sep-26 11:31 UTC. Time now 2016-Sep-26 12:18 UTC.
Position N 67°17' E 014°22'.

Length 30 m; draft 2.5 m.

Type: High speed craft. MMSI: 259604000.

Date/timePositionNaut miles runAvg speedWind from/ knotsBaromVisibWave heightAir tempDewpointWater temp
2016-Sep-26 11:31N 67°17' E 014°22'0 0.0
2016-Sep-26 08:31N 67°17' E 014°22'13 2.2
2016-Sep-26 02:29N 67°24' E 013°54'0 0.0
2016-Sep-26 01:29N 67°24' E 013°54'0 0.0
2016-Sep-25 21:29N 67°24' E 013°54'27 6.8
2016-Sep-25 17:33N 66°59' E 013°34'2811.6
2016-Sep-25 15:08N 66°34' E 012°59'1118.1
2016-Sep-25 14:33N 66°25' E 012°46'5 0.2
2016-Sep-24 18:31N 66°21' E 012°52'5413.6
2016-Sep-24 14:33N 67°07' E 014°03'12 6.1
2016-Sep-24 12:32N 67°17' E 014°22'0 0.0
2016-Sep-24 10:32N 67°17' E 014°22'0 0.0
2016-Sep-24 09:32N 67°17' E 014°22'0 0.0
2016-Sep-24 03:31N 67°17' E 014°22'0 0.0
2016-Sep-24 02:31N 67°17' E 014°22'0 0.0
2016-Sep-24 01:31N 67°17' E 014°22'0 0.0
2016-Sep-24 00:31N 67°17' E 014°22'0 0.0
2016-Sep-23 19:31N 67°17' E 014°22'0 0.0
2016-Sep-23 17:31N 67°17' E 014°22'0 0.0
2016-Sep-23 16:33N 67°17' E 014°22'1515.1
2016-Sep-23 15:33N 67°18' E 013°43'15 7.6
2016-Sep-23 13:33N 67°17' E 014°22'0 0.0
2016-Sep-23 09:33N 67°17' E 014°22'0 0.0
2016-Sep-23 06:32N 67°17' E 014°22'12 6.2
2016-Sep-23 04:33N 67°07' E 014°03'1212.3
2016-Sep-23 03:33N 67°17' E 014°22'0 0.0
2016-Sep-23 02:33N 67°17' E 014°22'0 0.0
2016-Sep-23 01:33N 67°17' E 014°22'0 0.0
2016-Sep-23 00:33N 67°17' E 014°22'0 0.0
2016-Sep-22 23:33N 67°17' E 014°22'0 0.0
2016-Sep-22 20:32N 67°17' E 014°22'15 1.9
2016-Sep-22 12:33N 67°19' E 013°44'13 1.7
2016-Sep-22 04:33N 67°07' E 014°03'1212.3
2016-Sep-22 03:33N 67°17' E 014°22'0 0.0
2016-Sep-22 00:31N 67°17' E 014°22'0 0.0
2016-Sep-21 23:31N 67°17' E 014°22'0 0.0
2016-Sep-21 22:31N 67°17' E 014°22'7 2.5
2016-Sep-21 19:33N 67°14' E 014°05'8 2.6
2016-Sep-21 16:33N 67°17' E 014°23'1 0.1
2016-Sep-21 09:33N 67°17' E 014°22'0 0.0
2016-Sep-21 08:33N 67°17' E 014°22'0 0.0
2016-Sep-21 05:33N 67°17' E 014°22'0 0.0
2016-Sep-21 03:33N 67°17' E 014°22'0 0.0
2016-Sep-21 02:31N 67°17' E 014°22'0 0.0
2016-Sep-20 17:31N 67°17' E 014°22'10 3.2
2016-Sep-20 14:33N 67°25' E 014°07'10 9.6
2016-Sep-20 13:33N 67°17' E 014°22'0 0.0
2016-Sep-20 10:33N 67°17' E 014°22'0 0.0
2016-Sep-20 08:33N 67°17' E 014°22'0 0.0
2016-Sep-20 07:33N 67°17' E 014°22'1413.2
2016-Sep-20 06:31N 67°21' E 013°48'14 3.5
2016-Sep-20 02:32N 67°17' E 014°22'0 0.0
2016-Sep-19 23:32N 67°17' E 014°22'0 0.0
2016-Sep-19 19:32N 67°17' E 014°22'0 0.0
2016-Sep-19 18:32N 67°17' E 014°22'0 0.0
2016-Sep-19 16:34N 67°17' E 014°22'10 4.8
2016-Sep-19 14:34N 67°25' E 014°08'10 9.5
2016-Sep-19 13:33N 67°17' E 014°22'0 0.0
2016-Sep-19 12:33N 67°17' E 014°22'0 0.0
2016-Sep-19 11:33N 67°17' E 014°22'0 0.0
2016-Sep-19 09:33N 67°17' E 014°22'3 1.7
2016-Sep-19 07:34N 67°20' E 014°18'1110.9
2016-Sep-19 06:33N 67°22' E 013°50'3 0.8
2016-Sep-19 03:03N 67°24' E 013°54'0 0.0
2016-Sep-19 02:33N 67°24' E 013°54'0 0.0
2016-Sep-19 00:33N 67°24' E 013°54'5 1.0
2016-Sep-18 19:33N 67°25' E 014°07'6212.2
2016-Sep-18 14:30N 66°29' E 012°58'10 0.5
2016-Sep-17 18:28N 66°20' E 012°53'6713.6
2016-Sep-17 13:31N 67°17' E 014°22'0 0.0
2016-Sep-17 12:31N 67°17' E 014°22'0 0.0
2016-Sep-17 10:31N 67°17' E 014°22'0 0.1
2016-Sep-17 09:34N 67°17' E 014°22'1311.3
2016-Sep-17 08:22N 67°23' E 013°51'911.5
2016-Sep-17 07:34N 67°17' E 014°09'3 1.7
2016-Sep-17 05:34N 67°16' E 014°17'2 2.0
2016-Sep-17 04:31N 67°17' E 014°22'0 0.0
2016-Sep-17 00:31N 67°17' E 014°22'0 0.0
2016-Sep-16 17:31N 67°17' E 014°22'5 2.5
2016-Sep-16 15:33N 67°21' E 014°15'9 3.0
2016-Sep-16 12:33N 67°20' E 013°52'  

Dump ship's entire track history